sensor_id;sensor_type;location;lat;lon;timestamp;pressure;altitude;pressure_sealevel;temperature;humidity
18765;BME280;9511;54.242;12.448;2023-01-29T04:06:04;102195.00;;;2.59;100.00
18765;BME280;9511;54.242;12.448;2023-01-29T04:08:40;102181.34;;;2.63;100.00
18765;BME280;9511;54.242;12.448;2023-01-29T04:11:11;102180.81;;;2.67;100.00
18765;BME280;9511;54.242;12.448;2023-01-29T04:13:40;102168.31;;;2.63;100.00
18765;BME280;9511;54.242;12.448;2023-01-29T04:16:12;102156.03;;;2.62;100.00
18765;BME280;9511;54.242;12.448;2023-01-29T04:19:10;102157.63;;;2.60;100.00
18765;BME280;9511;54.242;12.448;2023-01-29T04:21:42;102156.81;;;2.61;100.00
18765;BME280;9511;54.242;12.448;2023-01-29T04:24:11;102154.47;;;2.64;100.00
18765;BME280;9511;54.242;12.448;2023-01-29T04:26:49;102156.94;;;2.62;100.00
18765;BME280;9511;54.242;12.448;2023-01-29T04:29:31;102145.34;;;2.59;100.00
18765;BME280;9511;54.242;12.448;2023-01-29T04:32:09;102146.50;;;2.62;100.00
18765;BME280;9511;54.242;12.448;2023-01-29T04:34:49;102147.41;;;2.63;100.00
18765;BME280;9511;54.242;12.448;2023-01-29T04:37:25;102144.94;;;2.64;100.00
18765;BME280;9511;54.242;12.448;2023-01-29T04:40:03;102142.97;;;2.62;100.00
18765;BME280;9511;54.242;12.448;2023-01-29T04:42:42;102144.03;;;2.64;100.00
18765;BME280;9511;54.242;12.448;2023-01-29T04:45:16;102144.03;;;2.64;100.00
18765;BME280;9511;54.242;12.448;2023-01-29T04:47:48;102136.19;;;2.64;100.00
18765;BME280;9511;54.242;12.448;2023-01-29T04:50:23;102140.63;;;2.65;100.00
18765;BME280;9511;54.242;12.448;2023-01-29T04:53:00;102123.13;;;2.64;100.00
18765;BME280;9511;54.242;12.448;2023-01-29T04:55:34;102134.34;;;2.63;100.00
18765;BME280;9511;54.242;12.448;2023-01-29T04:58:08;102125.84;;;2.65;100.00
18765;BME280;9511;54.242;12.448;2023-01-29T05:00:40;102125.97;;;2.67;100.00
18765;BME280;9511;54.242;12.448;2023-01-29T05:03:11;102133.81;;;2.67;100.00
18765;BME280;9511;54.242;12.448;2023-01-29T05:05:41;102137.69;;;2.72;100.00
18765;BME280;9511;54.242;12.448;2023-01-29T05:08:13;102128.16;;;2.73;100.00
18765;BME280;9511;54.242;12.448;2023-01-29T05:10:41;102132.03;;;2.78;100.00
18765;BME280;9511;54.242;12.448;2023-01-29T05:13:11;102118.84;;;2.76;100.00
18765;BME280;9511;54.242;12.448;2023-01-29T05:15:42;102115.66;;;2.80;100.00
18765;BME280;9511;54.242;12.448;2023-01-29T05:18:10;102101.69;;;2.80;100.00
18765;BME280;9511;54.242;12.448;2023-01-29T05:20:40;102098.28;;;2.81;100.00
18765;BME280;9511;54.242;12.448;2023-01-29T05:23:10;102095.94;;;2.84;100.00
18765;BME280;9511;54.242;12.448;2023-01-29T05:25:41;102097.53;;;2.82;100.00
18765;BME280;9511;54.242;12.448;2023-01-29T05:28:09;102100.25;;;2.83;100.00
18765;BME280;9511;54.242;12.448;2023-01-29T05:30:42;102081.41;;;2.87;100.00
18765;BME280;9511;54.242;12.448;2023-01-29T05:33:13;102099.44;;;2.84;100.00
18765;BME280;9511;54.242;12.448;2023-01-29T05:35:40;102079.34;;;2.83;100.00
18765;BME280;9511;54.242;12.448;2023-01-29T05:38:08;102063.66;;;2.83;100.00
18765;BME280;9511;54.242;12.448;2023-01-29T05:40:37;102060.50;;;2.87;100.00
18765;BME280;9511;54.242;12.448;2023-01-29T05:43:12;102068.44;;;2.89;100.00
18765;BME280;9511;54.242;12.448;2023-01-29T05:45:40;102064.38;;;2.92;100.00
18765;BME280;9511;54.242;12.448;2023-01-29T05:48:08;102088.38;;;2.99;100.00
18765;BME280;9511;54.242;12.448;2023-01-29T05:50:35;102098.81;;;2.99;100.00
18765;BME280;9511;54.242;12.448;2023-01-29T05:53:02;102096.44;;;3.02;100.00
18765;BME280;9511;54.242;12.448;2023-01-29T05:55:30;102113.94;;;3.03;100.00
18765;BME280;9511;54.242;12.448;2023-01-29T05:57:59;102101.22;;;3.07;100.00
18765;BME280;9511;54.242;12.448;2023-01-29T06:00:26;102088.03;;;3.06;100.00
18765;BME280;9511;54.242;12.448;2023-01-29T06:02:53;102080.19;;;3.06;100.00
18765;BME280;9511;54.242;12.448;2023-01-29T06:05:21;102054.28;;;3.09;100.00
18765;BME280;9511;54.242;12.448;2023-01-29T06:07:49;102052.56;;;3.09;100.00
18765;BME280;9511;54.242;12.448;2023-01-29T06:10:17;102044.06;;;3.12;100.00
18765;BME280;9511;54.242;12.448;2023-01-29T06:12:44;102051.34;;;3.16;100.00
18765;BME280;9511;54.242;12.448;2023-01-29T06:15:13;102038.03;;;3.13;100.00
18765;BME280;9511;54.242;12.448;2023-01-29T06:17:41;102026.56;;;3.11;100.00
18765;BME280;9511;54.242;12.448;2023-01-29T06:20:09;102031.91;;;3.12;100.00
18765;BME280;9511;54.242;12.448;2023-01-29T06:22:37;102024.84;;;3.11;100.00
18765;BME280;9511;54.242;12.448;2023-01-29T06:25:06;102035.41;;;3.13;100.00
18765;BME280;9511;54.242;12.448;2023-01-29T06:27:33;102037.47;;;3.17;100.00
18765;BME280;9511;54.242;12.448;2023-01-29T06:30:01;102046.22;;;3.17;100.00
18765;BME280;9511;54.242;12.448;2023-01-29T06:32:30;102029.97;;;3.22;100.00
18765;BME280;9511;54.242;12.448;2023-01-29T06:34:57;102017.91;;;3.24;100.00
18765;BME280;9511;54.242;12.448;2023-01-29T06:37:24;102019.38;;;3.20;100.00
18765;BME280;9511;54.242;12.448;2023-01-29T06:39:52;102021.88;;;3.18;100.00
18765;BME280;9511;54.242;12.448;2023-01-29T06:42:19;102028.81;;;3.18;100.00
18765;BME280;9511;54.242;12.448;2023-01-29T06:44:52;102032.13;;;3.15;100.00
18765;BME280;9511;54.242;12.448;2023-01-29T06:47:20;102034.63;;;3.14;100.00
18765;BME280;9511;54.242;12.448;2023-01-29T06:49:48;102034.84;;;3.17;100.00
18765;BME280;9511;54.242;12.448;2023-01-29T06:52:16;102032.91;;;3.14;100.00
18765;BME280;9511;54.242;12.448;2023-01-29T06:54:43;102036.44;;;3.15;100.00
18765;BME280;9511;54.242;12.448;2023-01-29T06:57:11;102033.59;;;3.12;100.00
18765;BME280;9511;54.242;12.448;2023-01-29T06:59:38;102031.19;;;3.15;100.00
18765;BME280;9511;54.242;12.448;2023-01-29T07:02:05;102041.44;;;3.12;100.00
18765;BME280;9511;54.242;12.448;2023-01-29T07:04:32;102032.59;;;3.10;100.00
18765;BME280;9511;54.242;12.448;2023-01-29T07:07:01;102025.88;;;3.13;100.00
18765;BME280;9511;54.242;12.448;2023-01-29T07:09:29;102033.50;;;3.10;100.00
18765;BME280;9511;54.242;12.448;2023-01-29T07:11:56;102032.34;;;3.30;100.00
18765;BME280;9511;54.242;12.448;2023-01-29T07:14:23;102020.88;;;3.40;100.00
18765;BME280;9511;54.242;12.448;2023-01-29T07:16:50;102024.41;;;3.40;100.00
18765;BME280;9511;54.242;12.448;2023-01-29T07:19:18;102015.75;;;3.41;100.00
18765;BME280;9511;54.242;12.448;2023-01-29T07:21:45;102009.97;;;3.45;100.00
18765;BME280;9511;54.242;12.448;2023-01-29T07:24:14;102013.13;;;3.41;100.00
18765;BME280;9511;54.242;12.448;2023-01-29T07:26:41;102018.47;;;3.43;100.00
18765;BME280;9511;54.242;12.448;2023-01-29T07:29:08;102008.25;;;3.46;100.00
18765;BME280;9511;54.242;12.448;2023-01-29T07:31:36;102002.31;;;3.49;100.00
18765;BME280;9511;54.242;12.448;2023-01-29T07:34:03;101997.97;;;3.61;100.00
18765;BME280;9511;54.242;12.448;2023-01-29T07:36:30;102002.09;;;3.57;100.00
18765;BME280;9511;54.242;12.448;2023-01-29T07:38:57;101994.91;;;3.55;100.00
18765;BME280;9511;54.242;12.448;2023-01-29T07:41:26;101994.91;;;3.55;100.00
18765;BME280;9511;54.242;12.448;2023-01-29T07:43:54;101991.75;;;3.59;100.00
18765;BME280;9511;54.242;12.448;2023-01-29T07:46:21;101996.09;;;3.46;100.00
18765;BME280;9511;54.242;12.448;2023-01-29T07:48:48;102000.06;;;3.41;100.00
18765;BME280;9511;54.242;12.448;2023-01-29T07:51:15;101990.31;;;3.39;100.00
18765;BME280;9511;54.242;12.448;2023-01-29T07:53:43;101986.97;;;3.41;100.00
18765;BME280;9511;54.242;12.448;2023-01-29T07:56:10;101981.75;;;3.41;100.00
18765;BME280;9511;54.242;12.448;2023-01-29T07:58:39;101986.97;;;3.41;100.00
18765;BME280;9511;54.242;12.448;2023-01-29T08:01:07;101992.00;;;3.38;100.00
18765;BME280;9511;54.242;12.448;2023-01-29T08:03:34;102022.59;;;3.39;100.00
18765;BME280;9511;54.242;12.448;2023-01-29T08:06:02;102015.66;;;3.40;100.00
18765;BME280;9511;54.242;12.448;2023-01-29T08:08:29;102003.47;;;3.40;100.00
18765;BME280;9511;54.242;12.448;2023-01-29T08:10:59;102003.94;;;3.46;100.00
18765;BME280;9511;54.242;12.448;2023-01-29T08:13:27;102009.06;;;3.45;100.00
18765;BME280;9511;54.242;12.448;2023-01-29T08:15:59;102001.66;;;3.51;100.00
18765;BME280;9511;54.242;12.448;2023-01-29T08:18:27;101998.13;;;3.51;100.00
18765;BME280;9511;54.242;12.448;2023-01-29T08:20:58;101988.44;;;3.50;100.00
18765;BME280;9511;54.242;12.448;2023-01-29T08:23:26;101986.63;;;3.49;100.00
18765;BME280;9511;54.242;12.448;2023-01-29T08:25:53;101985.97;;;3.51;100.00
18765;BME280;9511;54.242;12.448;2023-01-29T08:28:20;101992.31;;;3.55;100.00
18765;BME280;9511;54.242;12.448;2023-01-29T08:30:48;101993.34;;;3.57;100.00
18765;BME280;9511;54.242;12.448;2023-01-29T08:33:16;102003.00;;;3.58;100.00
18765;BME280;9511;54.242;12.448;2023-01-29T08:35:47;101994.34;;;3.59;100.00
18765;BME280;9511;54.242;12.448;2023-01-29T08:38:15;101980.47;;;3.60;100.00
18765;BME280;9511;54.242;12.448;2023-01-29T08:40:43;101978.91;;;3.62;100.00
18765;BME280;9511;54.242;12.448;2023-01-29T08:43:11;101981.38;;;3.60;100.00
18765;BME280;9511;54.242;12.448;2023-01-29T08:45:41;101987.50;;;3.61;100.00
18765;BME280;9511;54.242;12.448;2023-01-29T08:48:09;101984.91;;;3.61;100.00
18765;BME280;9511;54.242;12.448;2023-01-29T08:50:37;101975.47;;;3.63;100.00
18765;BME280;9511;54.242;12.448;2023-01-29T08:53:06;101991.50;;;3.67;100.00
18765;BME280;9511;54.242;12.448;2023-01-29T08:55:35;101993.91;;;3.64;100.00
18765;BME280;9511;54.242;12.448;2023-01-29T08:58:03;101991.38;;;3.66;100.00
18765;BME280;9511;54.242;12.448;2023-01-29T09:00:31;101972.25;;;3.67;100.00
18765;BME280;9511;54.242;12.448;2023-01-29T09:02:59;101975.00;;;3.68;100.00
18765;BME280;9511;54.242;12.448;2023-01-29T09:05:26;101985.47;;;3.68;100.00
18765;BME280;9511;54.242;12.448;2023-01-29T09:07:56;101984.34;;;3.65;100.00
18765;BME280;9511;54.242;12.448;2023-01-29T09:10:25;101975.69;;;3.66;100.00
18765;BME280;9511;54.242;12.448;2023-01-29T09:12:52;101965.44;;;3.69;100.00
18765;BME280;9511;54.242;12.448;2023-01-29T09:15:20;101970.69;;;3.69;100.00
18765;BME280;9511;54.242;12.448;2023-01-29T09:17:47;101956.56;;;3.67;100.00
18765;BME280;9511;54.242;12.448;2023-01-29T09:20:15;101960.88;;;3.66;100.00
18765;BME280;9511;54.242;12.448;2023-01-29T09:22:43;101956.56;;;3.67;100.00
18765;BME280;9511;54.242;12.448;2023-01-29T09:25:12;101948.59;;;3.65;100.00
18765;BME280;9511;54.242;12.448;2023-01-29T09:27:39;101949.03;;;3.71;100.00
18765;BME280;9511;54.242;12.448;2023-01-29T09:30:07;101934.06;;;3.69;100.00
18765;BME280;9511;54.242;12.448;2023-01-29T09:32:35;101928.59;;;3.66;100.00
18765;BME280;9511;54.242;12.448;2023-01-29T09:35:02;101935.84;;;3.70;100.00
18765;BME280;9511;54.242;12.448;2023-01-29T09:37:29;101930.41;;;3.67;100.00
18765;BME280;9511;54.242;12.448;2023-01-29T09:39:57;101920.06;;;3.68;100.00
18765;BME280;9511;54.242;12.448;2023-01-29T09:42:27;101939.84;;;3.65;100.00
18765;BME280;9511;54.242;12.448;2023-01-29T09:45:02;101941.91;;;3.69;100.00
18765;BME280;9511;54.242;12.448;2023-01-29T09:47:32;101925.28;;;3.68;100.00
18765;BME280;9511;54.242;12.448;2023-01-29T09:50:03;101934.47;;;3.75;100.00
18765;BME280;9511;54.242;12.448;2023-01-29T09:52:34;101931.63;;;3.72;100.00
18765;BME280;9511;54.242;12.448;2023-01-29T09:55:04;101923.22;;;3.76;100.00
18765;BME280;9511;54.242;12.448;2023-01-29T09:57:42;101925.81;;;3.76;100.00
18765;BME280;9511;54.242;12.448;2023-01-29T10:00:14;101906.84;;;3.79;100.00
18765;BME280;9511;54.242;12.448;2023-01-29T10:02:55;101894.84;;;3.82;100.00
18765;BME280;9511;54.242;12.448;2023-01-29T10:05:34;101895.09;;;3.85;100.00
18765;BME280;9511;54.242;12.448;2023-01-29T10:11:18;101904.16;;;3.90;100.00
18765;BME280;9511;54.242;12.448;2023-01-29T10:14:03;101872.97;;;3.93;100.00
18765;BME280;9511;54.242;12.448;2023-01-29T10:16:45;101864.78;;;3.89;100.00
18765;BME280;9511;54.242;12.448;2023-01-29T10:19:28;101879.38;;;3.85;100.00
18765;BME280;9511;54.242;12.448;2023-01-29T10:22:23;101871.19;;;3.81;100.00
18765;BME280;9511;54.242;12.448;2023-01-29T10:24:57;101881.91;;;3.72;100.00
18765;BME280;9511;54.242;12.448;2023-01-29T10:27:31;101875.69;;;3.70;100.00
18765;BME280;9511;54.242;12.448;2023-01-29T10:30:02;101893.56;;;3.64;100.00
18765;BME280;9511;54.242;12.448;2023-01-29T10:32:36;101884.47;;;3.59;100.00
18765;BME280;9511;54.242;12.448;2023-01-29T10:35:11;101888.69;;;3.57;100.00
18765;BME280;9511;54.242;12.448;2023-01-29T10:37:42;101882.66;;;3.58;100.00
18765;BME280;9511;54.242;12.448;2023-01-29T10:40:17;101875.63;;;3.57;100.00
18765;BME280;9511;54.242;12.448;2023-01-29T10:42:51;101870.38;;;3.57;100.00
18765;BME280;9511;54.242;12.448;2023-01-29T10:45:29;101866.72;;;3.55;100.00
18765;BME280;9511;54.242;12.448;2023-01-29T10:48:27;101854.31;;;3.64;100.00
18765;BME280;9511;54.242;12.448;2023-01-29T10:51:06;101852.59;;;3.64;100.00
18765;BME280;9511;54.242;12.448;2023-01-29T10:53:47;101843.16;;;3.66;100.00
18765;BME280;9511;54.242;12.448;2023-01-29T10:56:37;101836.44;;;3.70;100.00
18765;BME280;9511;54.242;12.448;2023-01-29T10:59:20;101832.75;;;3.80;100.00
18765;BME280;9511;54.242;12.448;2023-01-29T11:01:56;101833.44;;;3.77;100.00
18765;BME280;9511;54.242;12.448;2023-01-29T11:04:24;101827.63;;;3.81;100.00
18765;BME280;9511;54.242;12.448;2023-01-29T11:06:53;101830.66;;;3.87;100.00
18765;BME280;9511;54.242;12.448;2023-01-29T11:09:27;101836.31;;;3.93;100.00
18765;BME280;9511;54.242;12.448;2023-01-29T11:12:00;101836.31;;;3.93;100.00
18765;BME280;9511;54.242;12.448;2023-01-29T11:14:32;101836.03;;;4.02;100.00
18765;BME280;9511;54.242;12.448;2023-01-29T11:17:05;101838.94;;;4.07;100.00
18765;BME280;9511;54.242;12.448;2023-01-29T11:19:42;101834.09;;;3.99;100.00
18765;BME280;9511;54.242;12.448;2023-01-29T11:22:12;101832.53;;;4.02;100.00
18765;BME280;9511;54.242;12.448;2023-01-29T11:24:40;101830.69;;;4.00;100.00
18765;BME280;9511;54.242;12.448;2023-01-29T11:27:14;101831.50;;;3.99;100.00
18765;BME280;9511;54.242;12.448;2023-01-29T11:29:42;101821.03;;;3.99;100.00
18765;BME280;9511;54.242;12.448;2023-01-29T11:32:14;101815.47;;;3.95;100.00
18765;BME280;9511;54.242;12.448;2023-01-29T11:34:59;101825.25;;;3.97;100.00
18765;BME280;9511;54.242;12.448;2023-01-29T11:37:35;101816.81;;;4.02;100.00
18765;BME280;9511;54.242;12.448;2023-01-29T11:40:39;101807.25;;;4.02;100.00
18765;BME280;9511;54.242;12.448;2023-01-29T11:43:19;101813.19;;;4.13;100.00
18765;BME280;9511;54.242;12.448;2023-01-29T11:45:49;101817.75;;;4.15;100.00
18765;BME280;9511;54.242;12.448;2023-01-29T11:48:20;101811.09;;;4.20;100.00
18765;BME280;9511;54.242;12.448;2023-01-29T11:50:51;101794.69;;;4.23;100.00
18765;BME280;9511;54.242;12.448;2023-01-29T11:53:34;101785.41;;;4.28;100.00
18765;BME280;9511;54.242;12.448;2023-01-29T11:56:06;101789.44;;;4.23;100.00
18765;BME280;9511;54.242;12.448;2023-01-29T11:58:43;101790.97;;;4.19;100.00
18765;BME280;9511;54.242;12.448;2023-01-29T12:01:14;101777.47;;;4.13;100.00
18765;BME280;9511;54.242;12.448;2023-01-29T12:03:47;101781.56;;;4.10;100.00
18765;BME280;9511;54.242;12.448;2023-01-29T12:06:19;101779.44;;;4.04;100.00
18765;BME280;9511;54.242;12.448;2023-01-29T12:08:54;101771.28;;;3.99;100.00
18765;BME280;9511;54.242;12.448;2023-01-29T12:11:26;101753.84;;;3.87;100.00
18765;BME280;9511;54.242;12.448;2023-01-29T12:13:56;101737.56;;;3.91;100.00
18765;BME280;9511;54.242;12.448;2023-01-29T12:16:27;101752.94;;;3.86;100.00
18765;BME280;9511;54.242;12.448;2023-01-29T12:19:06;101751.94;;;3.84;100.00
18765;BME280;9511;54.242;12.448;2023-01-29T12:21:40;101749.34;;;3.84;100.00
18765;BME280;9511;54.242;12.448;2023-01-29T12:24:19;101750.09;;;3.83;100.00
18765;BME280;9511;54.242;12.448;2023-01-29T12:26:53;101749.19;;;3.83;100.00
18765;BME280;9511;54.242;12.448;2023-01-29T12:29:29;101748.38;;;3.84;100.00
18765;BME280;9511;54.242;12.448;2023-01-29T12:32:05;101751.72;;;3.81;100.00
18765;BME280;9511;54.242;12.448;2023-01-29T12:34:43;101754.03;;;3.77;100.00
18765;BME280;9511;54.242;12.448;2023-01-29T12:37:17;101742.88;;;3.79;100.00
18765;BME280;9511;54.242;12.448;2023-01-29T12:39:45;101745.50;;;3.79;100.00
18765;BME280;9511;54.242;12.448;2023-01-29T12:42:15;101743.66;;;3.78;100.00
18765;BME280;9511;54.242;12.448;2023-01-29T12:44:46;101727.16;;;3.79;100.00
18765;BME280;9511;54.242;12.448;2023-01-29T12:47:18;101736.50;;;3.76;100.00
18765;BME280;9511;54.242;12.448;2023-01-29T12:49:51;101726.75;;;3.73;100.00
18765;BME280;9511;54.242;12.448;2023-01-29T12:52:24;101721.22;;;3.82;100.00
18765;BME280;9511;54.242;12.448;2023-01-29T12:54:57;101709.84;;;3.81;100.00
18765;BME280;9511;54.242;12.448;2023-01-29T12:57:35;101706.91;;;3.77;100.00
18765;BME280;9511;54.242;12.448;2023-01-29T13:00:08;101699.66;;;3.72;100.00
18765;BME280;9511;54.242;12.448;2023-01-29T13:02:40;101690.13;;;3.73;100.00
18765;BME280;9511;54.242;12.448;2023-01-29T13:05:18;101688.69;;;3.78;100.00
18765;BME280;9511;54.242;12.448;2023-01-29T13:07:50;101679.16;;;3.79;100.00
18765;BME280;9511;54.242;12.448;2023-01-29T13:10:24;101675.25;;;3.85;100.00
18765;BME280;9511;54.242;12.448;2023-01-29T13:12:56;101670.09;;;3.87;100.00
18765;BME280;9511;54.242;12.448;2023-01-29T13:15:28;101674.22;;;3.83;100.00
18765;BME280;9511;54.242;12.448;2023-01-29T13:20:45;101653.69;;;3.76;100.00
18765;BME280;9511;54.242;12.448;2023-01-29T13:23:19;101655.47;;;3.77;100.00
18765;BME280;9511;54.242;12.448;2023-01-29T13:25:50;101650.25;;;3.77;100.00
18765;BME280;9511;54.242;12.448;2023-01-29T13:28:18;101650.25;;;3.77;100.00
18765;BME280;9511;54.242;12.448;2023-01-29T13:33:55;101635.44;;;3.78;100.00
18765;BME280;9511;54.242;12.448;2023-01-29T13:36:28;101635.19;;;3.73;100.00
18765;BME280;9511;54.242;12.448;2023-01-29T13:39:02;101631.13;;;3.78;100.00
18765;BME280;9511;54.242;12.448;2023-01-29T13:41:32;101624.00;;;3.76;100.00
18765;BME280;9511;54.242;12.448;2023-01-29T13:44:01;101626.59;;;3.76;100.00
18765;BME280;9511;54.242;12.448;2023-01-29T13:46:29;101620.66;;;3.78;100.00
18765;BME280;9511;54.242;12.448;2023-01-29T13:48:58;101617.44;;;3.82;100.00
18765;BME280;9511;54.242;12.448;2023-01-29T13:51:34;101609.00;;;3.86;100.00
18765;BME280;9511;54.242;12.448;2023-01-29T13:54:04;101602.94;;;3.87;100.00
18765;BME280;9511;54.242;12.448;2023-01-29T13:56:43;101592.06;;;3.94;100.00
18765;BME280;9511;54.242;12.448;2023-01-29T13:59:22;101597.13;;;3.91;100.00
18765;BME280;9511;54.242;12.448;2023-01-29T14:02:00;101592.06;;;3.94;100.00
18765;BME280;9511;54.242;12.448;2023-01-29T14:04:30;101585.03;;;3.93;100.00
18765;BME280;9511;54.242;12.448;2023-01-29T14:07:01;101577.00;;;3.90;100.00
18765;BME280;9511;54.242;12.448;2023-01-29T14:12:32;101582.44;;;3.80;100.00
18765;BME280;9511;54.242;12.448;2023-01-29T14:15:22;101571.56;;;3.74;100.00
18765;BME280;9511;54.242;12.448;2023-01-29T14:18:23;101569.75;;;3.73;100.00
18765;BME280;9511;54.242;12.448;2023-01-29T14:21:04;101577.09;;;3.65;100.00
18765;BME280;9511;54.242;12.448;2023-01-29T14:23:37;101567.44;;;3.64;100.00
18765;BME280;9511;54.242;12.448;2023-01-29T14:26:22;101569.16;;;3.64;100.00
18765;BME280;9511;54.242;12.448;2023-01-29T14:28:52;101564.41;;;3.58;100.00
18765;BME280;9511;54.242;12.448;2023-01-29T14:31:31;101551.25;;;3.57;100.00
18765;BME280;9511;54.242;12.448;2023-01-29T14:34:05;101560.09;;;3.59;100.00
18765;BME280;9511;54.242;12.448;2023-01-29T14:36:41;101555.56;;;3.56;100.00
18765;BME280;9511;54.242;12.448;2023-01-29T14:39:27;101546.00;;;3.57;100.00
18765;BME280;9511;54.242;12.448;2023-01-29T14:41:56;101540.56;;;3.54;100.00
18765;BME280;9511;54.242;12.448;2023-01-29T14:44:46;101551.13;;;3.55;100.00
18765;BME280;9511;54.242;12.448;2023-01-29T14:47:18;101537.13;;;3.55;100.00
18765;BME280;9511;54.242;12.448;2023-01-29T14:49:52;101535.72;;;3.60;100.00
18765;BME280;9511;54.242;12.448;2023-01-29T14:52:23;101535.72;;;3.60;100.00
18765;BME280;9511;54.242;12.448;2023-01-29T14:54:58;101529.50;;;3.58;100.00
18765;BME280;9511;54.242;12.448;2023-01-29T14:57:27;101523.47;;;3.59;100.00
18765;BME280;9511;54.242;12.448;2023-01-29T14:59:58;101523.47;;;3.59;100.00
18765;BME280;9511;54.242;12.448;2023-01-29T15:02:29;101521.44;;;3.55;100.00
18765;BME280;9511;54.242;12.448;2023-01-29T15:05:06;101518.81;;;3.55;100.00
18765;BME280;9511;54.242;12.448;2023-01-29T15:07:37;101519.63;;;3.54;100.00
18765;BME280;9511;54.242;12.448;2023-01-29T15:10:15;101513.41;;;3.52;100.00
18765;BME280;9511;54.242;12.448;2023-01-29T15:12:46;101505.25;;;3.47;100.00
18765;BME280;9511;54.242;12.448;2023-01-29T15:15:17;101511.41;;;3.47;100.00
18765;BME280;9511;54.242;12.448;2023-01-29T15:17:53;101504.94;;;3.42;100.00
18765;BME280;9511;54.242;12.448;2023-01-29T15:20:29;101503.97;;;3.40;100.00
18765;BME280;9511;54.242;12.448;2023-01-29T15:22:56;101508.19;;;3.38;100.00
18765;BME280;9511;54.242;12.448;2023-01-29T15:25:27;101510.00;;;3.39;100.00
18765;BME280;9511;54.242;12.448;2023-01-29T15:27:58;101501.84;;;3.35;100.00
18765;BME280;9511;54.242;12.448;2023-01-29T15:30:30;101495.63;;;3.33;100.00
18765;BME280;9511;54.242;12.448;2023-01-29T15:32:59;101489.28;;;3.29;100.00
18765;BME280;9511;54.242;12.448;2023-01-29T15:35:29;101487.06;;;3.35;100.00
18765;BME280;9511;54.242;12.448;2023-01-29T15:37:58;101487.66;;;3.31;100.00
18765;BME280;9511;54.242;12.448;2023-01-29T15:40:27;101485.44;;;3.24;100.00
18765;BME280;9511;54.242;12.448;2023-01-29T15:42:54;101489.56;;;3.20;100.00
18765;BME280;9511;54.242;12.448;2023-01-29T15:45:23;101469.44;;;3.19;100.00
18765;BME280;9511;54.242;12.448;2023-01-29T15:47:54;101472.28;;;3.23;100.00
18765;BME280;9511;54.242;12.448;2023-01-29T15:50:23;101481.44;;;3.16;100.00
18765;BME280;9511;54.242;12.448;2023-01-29T15:52:51;101471.16;;;3.19;100.00
18765;BME280;9511;54.242;12.448;2023-01-29T15:55:21;101478.69;;;3.14;100.00
18765;BME280;9511;54.242;12.448;2023-01-29T15:57:51;101464.53;;;3.11;100.00
18765;BME280;9511;54.242;12.448;2023-01-29T16:00:22;101458.59;;;3.13;100.00
18765;BME280;9511;54.242;12.448;2023-01-29T16:02:52;101462.75;;;3.10;100.00
18765;BME280;9511;54.242;12.448;2023-01-29T16:05:23;101451.34;;;3.09;100.00
18765;BME280;9511;54.242;12.448;2023-01-29T16:07:53;101455.66;;;3.09;100.00
18765;BME280;9511;54.242;12.448;2023-01-29T16:10:23;101448.53;;;3.06;100.00
18765;BME280;9511;54.242;12.448;2023-01-29T16:12:53;101457.28;;;3.07;100.00
18765;BME280;9511;54.242;12.448;2023-01-29T16:15:29;101446.63;;;3.04;100.00
18765;BME280;9511;54.242;12.448;2023-01-29T16:17:58;101452.47;;;3.00;100.00
18765;BME280;9511;54.242;12.448;2023-01-29T16:20:32;101435.75;;;2.98;100.00
18765;BME280;9511;54.242;12.448;2023-01-29T16:22:59;101423.31;;;2.93;100.00
18765;BME280;9511;54.242;12.448;2023-01-29T16:25:28;101424.91;;;2.91;100.00
18765;BME280;9511;54.242;12.448;2023-01-29T16:27:57;101425.13;;;2.95;100.00
18765;BME280;9511;54.242;12.448;2023-01-29T16:30:29;101421.53;;;2.92;100.00
18765;BME280;9511;54.242;12.448;2023-01-29T16:33:00;101415.47;;;2.93;100.00
18765;BME280;9511;54.242;12.448;2023-01-29T16:35:28;101423.69;;;2.86;100.00
18765;BME280;9511;54.242;12.448;2023-01-29T16:37:59;101413.25;;;2.86;100.00
18765;BME280;9511;54.242;12.448;2023-01-29T16:40:30;101421.09;;;2.86;100.00
18765;BME280;9511;54.242;12.448;2023-01-29T16:46:16;101406.94;;;2.83;100.00
18765;BME280;9511;54.242;12.448;2023-01-29T16:48:44;101407.03;;;2.84;100.00
18765;BME280;9511;54.242;12.448;2023-01-29T16:51:14;101403.41;;;2.82;100.00
18765;BME280;9511;54.242;12.448;2023-01-29T16:53:58;101403.28;;;2.81;100.00
18765;BME280;9511;54.242;12.448;2023-01-29T16:56:28;101404.00;;;2.78;100.00
18765;BME280;9511;54.242;12.448;2023-01-29T16:58:56;101396.66;;;2.73;100.00
18765;BME280;9511;54.242;12.448;2023-01-29T17:01:27;101393.97;;;2.71;100.00
18765;BME280;9511;54.242;12.448;2023-01-29T17:04:00;101383.50;;;2.71;100.00
18765;BME280;9511;54.242;12.448;2023-01-29T17:06:33;101378.28;;;2.71;100.00
18765;BME280;9511;54.242;12.448;2023-01-29T17:09:02;101374.66;;;2.69;100.00
18765;BME280;9511;54.242;12.448;2023-01-29T17:11:33;101365.63;;;2.64;100.00
18765;BME280;9511;54.242;12.448;2023-01-29T17:14:03;101367.22;;;2.62;100.00
18765;BME280;9511;54.242;12.448;2023-01-29T17:16:34;101360.41;;;2.64;100.00
18765;BME280;9511;54.242;12.448;2023-01-29T17:19:13;101359.28;;;2.60;100.00
18765;BME280;9511;54.242;12.448;2023-01-29T17:21:42;101357.00;;;2.65;100.00
18765;BME280;9511;54.242;12.448;2023-01-29T17:24:09;101346.13;;;2.59;100.00
18765;BME280;9511;54.242;12.448;2023-01-29T17:26:37;101346.13;;;2.59;100.00
18765;BME280;9511;54.242;12.448;2023-01-29T17:29:07;101347.84;;;2.58;100.00
18765;BME280;9511;54.242;12.448;2023-01-29T17:31:37;101338.19;;;2.57;100.00
18765;BME280;9511;54.242;12.448;2023-01-29T17:34:09;101339.09;;;2.58;100.00